Time;durP1;ratioP1;P1;durP2;ratioP2;P2;SDS_P1;SDS_P2;PMS_P1;PMS_P2;Temp;Humidity;BMP_temperature;BMP_pressure;BME280_temperature;BME280_humidity;BME280_pressure;Samples;Min_cycle;Max_cycle;Signal;HPM_P1;HPM_P2
2022/08/03 00:00:42;;;;;;;5.35;2.88;;;;;;;22.78;53.53;101348.44;4822727;29;20030;-51
2022/08/03 00:03:08;;;;;;;6.25;3.20;;;;;;;22.84;52.83;101353.59;4822840;29;20038;-50
2022/08/03 00:05:35;;;;;;;6.60;3.00;;;;;;;22.67;53.78;101358.53;4823145;29;20165;-48
2022/08/03 00:08:01;;;;;;;8.25;3.30;;;;;;;22.35;54.42;101350.63;4821452;29;20056;-52
2022/08/03 00:10:27;;;;;;;6.50;3.20;;;;;;;22.62;53.83;101342.97;4822406;29;20034;-50
2022/08/03 00:12:54;;;;;;;7.65;3.97;;;;;;;22.39;54.06;101349.00;4816557;29;20157;-49
2022/08/03 00:15:20;;;;;;;6.95;2.88;;;;;;;22.61;53.56;101344.06;4822065;29;20059;-51
2022/08/03 00:17:46;;;;;;;6.43;3.45;;;;;;;22.36;54.64;101346.81;4819610;29;20053;-52
2022/08/03 00:20:13;;;;;;;7.13;3.40;;;;;;;22.42;54.35;101337.53;4820746;29;20053;-51
2022/08/03 00:22:39;;;;;;;7.57;3.00;;;;;;;22.59;53.61;101342.69;4822554;29;20038;-53
2022/08/03 00:25:05;;;;;;;5.30;2.88;;;;;;;22.51;54.13;101337.81;4820992;29;20121;-52
2022/08/03 00:27:32;;;;;;;7.10;3.95;;;;;;;22.64;53.31;101332.59;4820501;29;20092;-52
2022/08/03 00:29:58;;;;;;;4.88;3.17;;;;;;;22.21;54.48;101336.72;4811049;29;20480;-48
2022/08/03 00:32:25;;;;;;;7.00;3.35;;;;;;;22.11;54.28;101331.25;4816570;29;20030;-51
2022/08/03 00:34:51;;;;;;;8.75;3.38;;;;;;;22.11;54.58;101328.53;4821031;29;20171;-51
2022/08/03 00:37:17;;;;;;;7.53;3.50;;;;;;;22.01;55.72;101323.84;4821466;29;20036;-52
2022/08/03 00:39:46;;;;;;;5.35;3.20;;;;;;;22.05;55.32;101335.03;4825682;29;20031;-48
2022/08/03 00:42:12;;;;;;;9.40;3.50;;;;;;;22.17;54.86;101327.44;4826257;29;20488;-58
2022/08/03 00:44:42;;;;;;;8.10;3.28;;;;;;;21.95;55.66;101324.94;4816746;29;20031;-52
2022/08/03 00:47:09;;;;;;;6.43;3.30;;;;;;;;;;4807467;29;20031;-51
2022/08/03 00:49:36;;;;;;;8.25;3.67;;;;;;;22.08;55.20;101327.13;4812235;29;20477;-53
2022/08/03 00:52:03;;;;;;;7.68;3.75;;;;;;;21.93;55.80;101331.72;4813193;29;20030;-53
2022/08/03 00:54:29;;;;;;;8.15;3.70;;;;;;;21.81;56.57;101329.25;4813055;29;20034;-52
2022/08/03 00:56:56;;;;;;;13.50;3.63;;;;;;;21.70;56.76;101335.75;4819544;29;20042;-48
2022/08/03 00:59:22;;;;;;;11.52;4.13;;;;;;;21.38;57.67;101330.47;4809284;29;20199;-52
2022/08/03 01:01:48;;;;;;;8.15;3.60;;;;;;;21.34;58.48;101322.84;4821162;29;20038;-52
2022/08/03 01:04:15;;;;;;;7.82;4.05;;;;;;;21.22;58.56;101338.56;4825904;29;20031;-52
2022/08/03 01:07:16;;;;;;;7.60;3.72;;;;;;;21.00;59.18;101332.47;4832982;29;20053;-52
2022/08/03 01:10:15;;;;;;;7.10;3.42;;;;;;;20.92;59.33;101327.50;4804867;29;20125;-53
2022/08/03 01:13:31;;;;;;;8.48;3.42;;;;;;;20.93;59.38;101329.97;4791674;29;20045;-55
2022/08/03 01:16:18;;;;;;;9.65;4.00;;;;;;;21.03;58.96;101334.63;4763976;30;20046;-54
2022/08/03 01:19:16;;;;;;;7.28;3.95;;;;;;;20.81;60.04;101315.72;4807263;29;20085;-55
2022/08/03 01:22:06;;;;;;;7.32;3.88;;;;;;;20.87;60.00;101319.28;4796452;29;20039;-52
2022/08/03 01:24:57;;;;;;;6.70;3.85;;;;;;;20.68;59.99;101319.72;4823188;29;20054;-51
2022/08/03 01:28:19;;;;;;;9.32;3.90;;;;;;;20.37;61.01;101315.91;4818404;29;20423;-52
2022/08/03 01:30:46;;;;;;;7.63;3.60;;;;;;;20.36;61.50;101314.28;4801585;29;20109;-51
2022/08/03 01:33:24;;;;;;;7.95;4.07;;;;;;;20.49;61.50;101313.09;4810036;29;20031;-52
2022/08/03 01:36:01;;;;;;;11.90;3.97;;;;;;;20.47;61.30;101321.47;4810755;29;20055;-52
2022/08/03 01:38:37;;;;;;;9.75;3.95;;;;;;;20.30;61.42;101327.03;4806819;29;20065;-52
2022/08/03 01:41:17;;;;;;;8.27;3.72;;;;;;;20.34;60.99;101331.97;4806870;29;20100;-49
2022/08/03 01:43:48;;;;;;;8.00;3.63;;;;;;;20.35;61.50;101328.16;4822325;29;20041;-52
2022/08/03 01:46:17;;;;;;;8.60;3.85;;;;;;;20.15;61.49;101321.44;4821274;29;20042;-52
2022/08/03 01:48:46;;;;;;;9.93;4.18;;;;;;;20.12;61.54;101329.31;4815322;29;20038;-51
2022/08/03 01:51:15;;;;;;;7.22;4.15;;;;;;;20.27;61.84;101333.00;4818620;29;20042;-53
2022/08/03 01:53:42;;;;;;;8.98;4.15;;;;;;;19.93;62.22;101337.84;4835126;29;20022;-51
2022/08/03 01:56:09;;;;;;;6.75;3.60;;;;;;;20.03;62.27;101331.66;4829433;29;20030;-52
2022/08/03 01:58:37;;;;;;;13.10;4.38;;;;;;;19.68;62.63;101340.28;4831714;29;20038;-52
2022/08/03 02:01:06;;;;;;;6.63;3.78;;;;;;;19.67;63.16;101344.06;4824610;29;20095;-52
2022/08/03 02:03:37;;;;;;;12.10;3.95;;;;;;;19.79;62.83;101331.16;4825279;29;20069;-55
2022/08/03 02:06:06;;;;;;;8.55;3.83;;;;;;;19.62;63.01;101331.25;4824601;29;20499;-52
2022/08/03 02:08:33;;;;;;;8.25;3.97;;;;;;;19.56;63.34;101336.84;4823884;29;20031;-52
2022/08/03 02:11:01;;;;;;;10.95;3.85;;;;;;;19.59;63.54;101339.06;4824427;29;20034;-53
2022/08/03 02:13:29;;;;;;;8.93;3.35;;;;;;;19.70;62.86;101335.38;4824603;29;20034;-53
2022/08/03 02:15:57;;;;;;;10.07;3.70;;;;;;;19.84;62.07;101328.50;4824469;29;20045;-53
2022/08/03 02:18:24;;;;;;;6.30;3.28;;;;;;;20.13;61.43;101331.75;4816104;29;20253;-54
2022/08/03 02:20:51;;;;;;;16.83;3.85;;;;;;;20.02;61.58;101319.16;4820545;29;20114;-55
2022/08/03 02:23:18;;;;;;;7.13;3.72;;;;;;;19.86;62.32;101322.78;4822894;29;20038;-56
2022/08/03 02:25:49;;;;;;;8.98;4.10;;;;;;;19.98;62.11;101337.88;4804961;29;20039;-55
2022/08/03 02:28:30;;;;;;;6.82;3.67;;;;;;;19.95;62.48;101338.38;4806042;29;20404;-54
2022/08/03 02:31:00;;;;;;;10.70;3.45;;;;;;;19.97;62.46;101338.13;4822328;29;20061;-55
2022/08/03 02:33:32;;;;;;;6.13;3.40;;;;;;;19.91;62.42;101325.56;4826031;29;20030;-55
2022/08/03 02:36:00;;;;;;;7.35;3.63;;;;;;;20.04;61.71;101336.88;4813394;29;20545;-53
2022/08/03 02:38:32;;;;;;;8.00;3.28;;;;;;;19.73;62.96;101338.44;4812980;29;20369;-55
2022/08/03 02:41:03;;;;;;;8.23;3.50;;;;;;;19.60;63.29;101333.41;4811326;29;20132;-54
2022/08/03 02:43:31;;;;;;;7.38;3.67;;;;;;;19.25;64.42;101342.69;4820715;29;20392;-55
2022/08/03 02:45:57;;;;;;;10.15;3.97;;;;;;;19.06;65.59;101345.97;4805535;29;20499;-55
2022/08/03 02:48:28;;;;;;;10.93;4.07;;;;;;;18.55;67.69;101345.19;4819165;29;20026;-56
2022/08/03 02:50:57;;;;;;;6.95;4.30;;;;;;;18.68;67.30;101336.72;4811445;29;20038;-56
2022/08/03 02:53:24;;;;;;;8.75;4.38;;;;;;;18.63;68.17;101340.16;4805676;29;20035;-55
2022/08/03 02:55:52;;;;;;;10.05;4.40;;;;;;;18.56;67.96;101334.09;4820427;29;20027;-55
2022/08/03 02:58:20;;;;;;;8.15;3.90;;;;;;;18.51;68.11;101347.56;4823455;29;20022;-55
2022/08/03 03:00:50;;;;;;;11.50;4.13;;;;;;;17.94;70.38;101339.53;4823651;29;20034;-55
2022/08/03 03:03:17;;;;;;;10.13;4.28;;;;;;;17.93;70.42;101345.97;4811996;29;20349;-54
2022/08/03 03:05:45;;;;;;;10.77;4.45;;;;;;;17.86;70.70;101356.97;4834364;29;20042;-54
2022/08/03 03:08:17;;;;;;;10.23;4.60;;;;;;;17.77;71.47;101347.59;4817425;29;20038;-55
2022/08/03 03:10:44;;;;;;;12.50;4.43;;;;;;;17.75;71.01;101347.00;4818767;29;20046;-54
2022/08/03 03:13:12;;;;;;;9.00;4.38;;;;;;;17.64;71.93;101351.38;4828936;29;20040;-52
2022/08/03 03:15:40;;;;;;;8.70;4.43;;;;;;;17.35;72.83;101355.09;4823328;29;20117;-54
2022/08/03 03:18:08;;;;;;;6.75;4.50;;;;;;;17.38;72.73;101350.03;4822322;29;20034;-53
2022/08/03 03:20:36;;;;;;;9.02;4.43;;;;;;;17.38;72.84;101355.47;4811056;29;20125;-54
2022/08/03 03:23:04;;;;;;;12.82;5.13;;;;;;;17.55;72.33;101360.94;4806150;29;20027;-55
2022/08/03 03:25:32;;;;;;;11.23;4.63;;;;;;;17.47;72.76;101352.38;4825616;29;20034;-53
2022/08/03 03:28:00;;;;;;;10.68;4.82;;;;;;;17.33;73.38;101351.81;4806976;29;20508;-54
2022/08/03 03:30:27;;;;;;;7.82;5.05;;;;;;;17.09;74.63;101357.25;4832711;29;20177;-54
2022/08/03 03:32:54;;;;;;;12.48;5.32;;;;;;;16.98;75.11;101363.47;4841280;29;20033;-53
2022/08/03 03:35:20;;;;;;;10.02;5.07;;;;;;;16.94;75.72;101373.16;4841470;29;20033;-55
2022/08/03 03:37:46;;;;;;;13.95;5.60;;;;;;;16.87;75.63;101373.22;4825416;29;20031;-54
2022/08/03 03:40:13;;;;;;;11.90;5.45;;;;;;;16.71;76.42;101375.81;4821706;29;20073;-54
2022/08/03 03:42:40;;;;;;;12.30;4.97;;;;;;;16.74;76.06;101383.47;4841546;29;20033;-55
2022/08/03 03:45:07;;;;;;;13.02;4.97;;;;;;;16.70;76.21;101382.25;4839704;29;20373;-55
2022/08/03 03:47:34;;;;;;;9.10;5.57;;;;;;;16.68;75.97;101382.50;4813973;29;20038;-55
2022/08/03 03:50:05;;;;;;;7.93;4.53;;;;;;;16.58;76.64;101387.63;4804769;29;20035;-55
2022/08/03 03:52:32;;;;;;;12.18;5.40;;;;;;;16.63;76.28;101385.06;4805192;29;20061;-55
2022/08/03 03:54:58;;;;;;;9.38;5.10;;;;;;;16.50;76.81;101385.28;4804707;29;20038;-55
2022/08/03 03:57:25;;;;;;;14.70;5.55;;;;;;;16.29;77.86;101384.75;4804851;29;20088;-53
2022/08/03 03:59:51;;;;;;;12.35;5.32;;;;;;;16.49;76.91;101375.50;4804468;29;20035;-55
2022/08/03 04:02:18;;;;;;;10.27;4.53;;;;;;;16.43;76.76;101376.44;4807735;29;20065;-54
2022/08/03 04:13:16;;;;;;;10.95;5.07;;;;;;;16.43;76.77;101366.44;4823304;29;20062;-53
2022/08/03 04:15:42;;;;;;;9.75;5.25;;;;;;;16.50;76.38;101375.31;4805355;29;20087;-53
2022/08/03 04:18:13;;;;;;;6.82;4.55;;;;;;;16.43;76.65;101376.44;4803266;29;20369;-56
2022/08/03 04:20:44;;;;;;;12.40;5.15;;;;;;;16.53;76.52;101382.91;4815356;29;20034;-54
2022/08/03 04:23:12;;;;;;;11.52;5.32;;;;;;;16.52;76.65;101381.28;4818816;29;20422;-53
2022/08/03 04:25:41;;;;;;;9.65;5.03;;;;;;;16.48;76.61;101371.97;4821116;29;20034;-54
2022/08/03 04:28:08;;;;;;;14.65;5.30;;;;;;;16.40;77.08;101371.50;4804878;29;20125;-55
2022/08/03 04:30:38;;;;;;;9.18;5.05;;;;;;;16.49;76.56;101368.25;4800526;29;20333;-54
2022/08/03 04:33:05;;;;;;;7.15;4.90;;;;;;;16.29;77.22;101375.84;4799680;29;20038;-54
2022/08/03 04:35:33;;;;;;;9.07;5.00;;;;;;;16.38;77.28;101385.25;4806813;29;20058;-54
2022/08/03 04:38:05;;;;;;;12.20;5.43;;;;;;;16.33;77.54;101396.75;4818649;29;20465;-54
2022/08/03 04:40:38;;;;;;;9.38;4.88;;;;;;;16.37;77.07;101395.22;4821257;29;20064;-54
2022/08/03 04:43:07;;;;;;;12.40;5.38;;;;;;;16.44;76.88;101394.31;4822261;29;20048;-54
2022/08/03 04:45:34;;;;;;;9.38;4.88;;;;;;;16.49;76.17;101384.47;4822299;29;20090;-54
2022/08/03 04:48:01;;;;;;;8.38;4.47;;;;;;;16.45;76.01;101394.09;4821313;29;20073;-53
2022/08/03 04:50:27;;;;;;;10.70;4.85;;;;;;;16.37;76.19;101400.63;4823879;29;20476;-53
2022/08/03 04:52:55;;;;;;;13.43;5.43;;;;;;;16.48;76.05;101401.72;4804642;29;20034;-54
2022/08/03 04:55:32;;;;;;;7.50;4.85;;;;;;;16.44;75.97;101405.94;4822450;29;20035;-53
2022/08/03 04:57:59;;;;;;;11.77;5.40;;;;;;;16.50;75.51;101413.13;4821461;29;20030;-54
2022/08/03 05:00:26;;;;;;;9.32;4.95;;;;;;;16.41;75.98;101419.09;4808163;29;20034;-53
2022/08/03 05:02:53;;;;;;;14.90;4.90;;;;;;;16.39;76.30;101419.31;4804660;29;20039;-54
2022/08/03 05:05:20;;;;;;;9.50;5.43;;;;;;;16.19;76.85;101421.47;4803768;29;20035;-53
2022/08/03 05:07:46;;;;;;;7.68;4.43;;;;;;;16.23;76.74;101420.78;4815672;29;20446;-54
2022/08/03 05:10:13;;;;;;;7.20;4.55;;;;;;;16.19;76.97;101421.47;4803878;29;20042;-54
2022/08/03 05:12:40;;;;;;;8.10;4.18;;;;;;;16.13;77.44;101422.38;4819710;29;20035;-54
2022/08/03 05:15:06;;;;;;;7.57;4.88;;;;;;;16.23;77.40;101415.41;4821959;29;20073;-55
2022/08/03 05:17:32;;;;;;;13.68;5.60;;;;;;;16.24;77.41;101402.72;4821031;29;20079;-54
2022/08/03 05:19:59;;;;;;;9.15;5.50;;;;;;;16.31;77.33;101408.81;4815821;29;20027;-53
2022/08/03 05:22:26;;;;;;;9.75;4.93;;;;;;;16.10;78.49;101419.09;4808404;29;20442;-55
2022/08/03 05:24:52;;;;;;;7.07;4.90;;;;;;;16.25;77.84;101415.16;4806997;29;20034;-54
2022/08/03 05:27:18;;;;;;;7.32;4.80;;;;;;;16.30;78.03;101426.09;4818965;29;20045;-55
2022/08/03 05:29:45;;;;;;;8.90;4.80;;;;;;;16.24;78.21;101427.84;4806961;29;20488;-55
2022/08/03 05:32:12;;;;;;;9.95;4.55;;;;;;;16.35;77.81;101426.22;4805624;29;20059;-55
2022/08/03 05:34:38;;;;;;;9.57;5.57;;;;;;;16.22;77.55;101418.34;4807055;29;20023;-54
2022/08/03 05:37:06;;;;;;;6.63;4.68;;;;;;;16.27;77.22;101413.06;4819521;29;20101;-55
2022/08/03 05:39:32;;;;;;;7.88;5.25;;;;;;;16.21;77.74;101411.25;4809800;29;20146;-53
2022/08/03 05:41:59;;;;;;;7.97;4.88;;;;;;;16.26;77.51;101412.22;4807931;29;20110;-54
2022/08/03 05:44:25;;;;;;;8.20;4.97;;;;;;;16.28;77.24;101407.44;4806973;29;20031;-56
2022/08/03 05:46:51;;;;;;;6.97;4.30;;;;;;;16.10;77.54;101408.31;4807137;29;20121;-55
2022/08/03 05:49:19;;;;;;;7.75;4.50;;;;;;;16.21;77.28;101398.59;4806458;29;20027;-54
2022/08/03 05:51:45;;;;;;;8.80;4.78;;;;;;;16.08;78.12;101402.28;4809090;29;20027;-55
2022/08/03 05:54:11;;;;;;;9.00;4.80;;;;;;;15.92;78.50;101399.41;4813800;29;20472;-53
2022/08/03 05:56:39;;;;;;;6.35;4.38;;;;;;;15.93;78.71;101399.16;4824984;29;20036;-54
2022/08/03 05:59:06;;;;;;;6.32;4.63;;;;;;;15.87;78.58;101394.69;4817689;29;20832;-53
2022/08/03 06:01:32;;;;;;;6.57;4.57;;;;;;;15.68;79.23;101398.47;4825034;29;20069;-54
2022/08/03 06:03:59;;;;;;;8.30;4.40;;;;;;;15.56;80.28;101406.47;4807763;29;20476;-54
2022/08/03 06:06:25;;;;;;;7.45;4.15;;;;;;;15.53;80.30;101413.13;4824971;29;20057;-53
2022/08/03 06:08:51;;;;;;;5.95;4.03;;;;;;;15.54;80.60;101416.63;4823564;29;20033;-55
2022/08/03 06:11:19;;;;;;;7.22;4.68;;;;;;;15.54;80.59;101420.16;4807253;29;20050;-54
2022/08/03 06:13:45;;;;;;;5.53;4.20;;;;;;;15.50;80.44;101427.06;4806481;29;20043;-54
2022/08/03 06:16:11;;;;;;;6.30;4.50;;;;;;;15.52;80.27;101421.44;4805991;29;20038;-54
2022/08/03 06:18:39;;;;;;;5.38;3.92;;;;;;;15.48;80.86;101428.31;4818750;29;20482;-55
2022/08/03 06:21:05;;;;;;;7.03;4.72;;;;;;;15.30;81.40;101429.97;4806346;29;20553;-53
2022/08/03 06:23:31;;;;;;;6.95;5.00;;;;;;;15.46;80.71;101423.16;4824310;29;20073;-54
2022/08/03 06:25:58;;;;;;;6.00;4.63;;;;;;;15.44;80.53;101421.75;4824770;29;20037;-54
2022/08/03 06:28:24;;;;;;;6.53;4.25;;;;;;;15.39;80.56;101419.72;4825408;29;20031;-54
2022/08/03 06:30:50;;;;;;;6.78;3.95;;;;;;;15.47;80.03;101413.19;4817753;29;20051;-53
2022/08/03 06:33:16;;;;;;;5.55;3.75;;;;;;;15.35;80.51;101423.91;4826099;29;20104;-54
2022/08/03 06:35:43;;;;;;;5.68;3.90;;;;;;;15.37;80.88;101424.50;4824497;29;20034;-53
2022/08/03 06:38:09;;;;;;;4.90;4.07;;;;;;;15.32;81.01;101417.09;4805383;29;20046;-54
2022/08/03 06:40:38;;;;;;;6.00;4.00;;;;;;;15.37;80.71;101416.41;4804352;29;20047;-54
2022/08/03 06:43:06;;;;;;;7.25;4.10;;;;;;;15.26;81.39;101412.56;4804489;29;20095;-53
2022/08/03 06:45:32;;;;;;;7.10;3.83;;;;;;;15.14;81.79;101418.94;4805955;29;20473;-54
2022/08/03 06:48:07;;;;;;;4.88;3.50;;;;;;;15.17;81.91;101413.09;4805271;29;20476;-54
2022/08/03 06:50:35;;;;;;;8.30;4.28;;;;;;;14.93;82.88;101423.66;4806116;29;20077;-52
2022/08/03 06:53:02;;;;;;;5.30;4.05;;;;;;;15.04;82.34;101424.81;4819221;29;20049;-55
2022/08/03 06:55:29;;;;;;;5.20;3.80;;;;;;;14.98;82.49;101413.03;4823797;29;20038;-54
2022/08/03 06:57:55;;;;;;;5.05;3.97;;;;;;;14.95;82.51;101416.19;4819470;29;20389;-53
2022/08/03 07:00:22;;;;;;;6.95;4.63;;;;;;;15.02;82.68;101414.25;4805543;29;20031;-53
2022/08/03 07:02:48;;;;;;;5.93;4.03;;;;;;;15.03;82.42;101421.28;4820993;29;20472;-53
2022/08/03 07:05:15;;;;;;;4.47;4.00;;;;;;;15.05;82.22;101421.09;4824083;29;20065;-53
2022/08/03 07:07:42;;;;;;;5.45;4.35;;;;;;;15.13;82.12;101430.75;4822546;29;20030;-53
2022/08/03 07:10:12;;;;;;;4.65;3.80;;;;;;;15.12;81.89;101431.81;4820175;29;20066;-54
2022/08/03 07:12:40;;;;;;;4.15;3.50;;;;;;;15.09;81.54;101432.25;4817702;29;20091;-55
2022/08/03 07:15:07;;;;;;;7.00;4.20;;;;;;;14.99;82.11;101438.97;4823883;29;20038;-54
2022/08/03 07:17:35;;;;;;;4.88;3.72;;;;;;;14.97;82.21;101429.44;4821111;29;20034;-53
2022/08/03 07:20:04;;;;;;;7.07;4.38;;;;;;;14.94;82.25;101432.59;4823470;29;20065;-54
2022/08/03 07:22:30;;;;;;;4.13;3.60;;;;;;;14.82;nan;101435.16;4823418;29;20034;-53
2022/08/03 07:24:57;;;;;;;6.30;3.88;;;;;;;14.72;83.51;101424.88;4823539;29;20114;-53
2022/08/03 07:27:25;;;;;;;6.22;3.90;;;;;;;14.80;83.43;101429.16;4823101;29;20038;-53
2022/08/03 07:29:51;;;;;;;4.72;4.22;;;;;;;14.84;83.12;101434.97;4823143;29;20400;-54
2022/08/03 07:32:18;;;;;;;4.78;3.70;;;;;;;14.92;82.30;101429.28;4819370;29;20042;-53
2022/08/03 07:34:44;;;;;;;6.95;3.90;;;;;;;14.96;81.47;101417.84;4812378;29;20023;-54
2022/08/03 07:37:10;;;;;;;5.45;4.13;;;;;;;14.89;81.98;101417.09;4815310;29;20044;-53
2022/08/03 07:39:36;;;;;;;5.53;4.10;;;;;;;14.91;82.62;101423.06;4821333;29;20097;-54
2022/08/03 07:42:03;;;;;;;5.07;4.25;;;;;;;14.91;82.65;101422.25;4822373;29;20026;-53
2022/08/03 07:44:29;;;;;;;4.15;3.65;;;;;;;14.89;82.45;101416.25;4823653;29;20111;-54
2022/08/03 07:46:56;;;;;;;4.78;3.70;;;;;;;14.97;82.40;101422.19;4823194;29;20034;-53
2022/08/03 07:49:22;;;;;;;5.68;3.60;;;;;;;14.89;82.33;101421.66;4823175;29;20496;-50
2022/08/03 07:52:46;;;;;;;4.28;3.65;;;;;;;14.96;81.88;101412.44;4813473;29;20129;-53
2022/08/03 07:54:34;;;;;;;5.68;3.58;;;;;;;14.83;82.27;101428.75;4804142;29;20111;-54
2022/08/03 07:57:00;;;;;;;4.85;3.53;;;;;;;14.87;82.20;101429.13;4823337;29;20038;-54
2022/08/03 07:59:27;;;;;;;3.50;3.15;;;;;;;14.84;81.90;101408.00;4813494;29;20042;-53
2022/08/03 08:01:53;;;;;;;3.97;3.17;;;;;;;14.86;82.26;101422.91;4806072;29;20037;-53
2022/08/03 08:04:19;;;;;;;3.95;3.55;;;;;;;14.88;82.00;101426.22;4804609;29;20511;-54
2022/08/03 08:06:45;;;;;;;5.15;4.00;;;;;;;14.79;82.28;101416.75;4817176;29;20027;-53
2022/08/03 08:09:11;;;;;;;5.13;3.67;;;;;;;14.77;82.40;101419.69;4804179;29;20041;-53
2022/08/03 08:11:37;;;;;;;3.92;3.28;;;;;;;14.59;83.70;101407.97;4804307;29;20568;-53
2022/08/03 08:14:04;;;;;;;4.30;3.83;;;;;;;14.60;83.91;101399.69;4805114;29;20034;-54
2022/08/03 08:16:30;;;;;;;5.80;3.72;;;;;;;14.67;83.72;101410.44;4805907;29;20046;-54
2022/08/03 08:18:56;;;;;;;5.55;3.35;;;;;;;14.76;83.13;101409.09;4804659;29;20043;-54
2022/08/03 08:21:23;;;;;;;4.82;3.70;;;;;;;14.68;83.86;101404.00;4817186;29;20095;-55
2022/08/03 08:23:49;;;;;;;4.70;4.03;;;;;;;14.73;83.72;101398.75;4805414;29;20031;-53
2022/08/03 08:26:15;;;;;;;4.78;4.30;;;;;;;14.69;84.10;101401.06;4803311;29;20434;-53
2022/08/03 08:28:41;;;;;;;6.43;4.45;;;;;;;14.72;84.08;101399.81;4804074;29;20042;-53
2022/08/03 08:31:07;;;;;;;4.60;3.95;;;;;;;14.79;83.62;101404.09;4803791;29;20078;-54
2022/08/03 08:33:34;;;;;;;4.25;3.85;;;;;;;14.85;83.36;101393.47;4804007;29;20026;-55
2022/08/03 08:36:01;;;;;;;4.50;3.38;;;;;;;14.82;83.34;101400.13;4803603;29;20038;-54
2022/08/03 08:38:27;;;;;;;4.30;3.90;;;;;;;14.74;83.48;101390.44;4803909;29;20027;-53
2022/08/03 08:40:56;;;;;;;4.60;3.70;;;;;;;14.73;83.44;101388.00;4803777;29;20306;-53
2022/08/03 08:43:22;;;;;;;4.60;4.05;;;;;;;14.78;83.15;101385.47;4805583;29;20107;-53
2022/08/03 08:45:49;;;;;;;7.05;4.15;;;;;;;14.87;82.90;101386.81;4803116;29;20066;-53
2022/08/03 08:48:21;;;;;;;4.50;3.65;;;;;;;14.78;83.89;101382.75;4803363;29;20038;-53
2022/08/03 08:50:51;;;;;;;4.80;3.47;;;;;;;14.81;83.69;101393.09;4804478;29;20109;-53
2022/08/03 08:53:18;;;;;;;3.58;3.28;;;;;;;14.61;84.36;101398.66;4805455;29;20457;-53
2022/08/03 08:55:46;;;;;;;4.47;3.50;;;;;;;14.82;83.90;101410.06;4813087;29;20053;-54
2022/08/03 08:58:15;;;;;;;4.00;3.08;;;;;;;14.72;83.72;101411.41;4808052;29;20091;-54
2022/08/03 09:00:44;;;;;;;4.30;3.78;;;;;;;14.74;83.76;101405.81;4819544;29;20031;-53
2022/08/03 09:03:14;;;;;;;4.47;3.25;;;;;;;14.82;83.64;101405.50;4807368;29;20437;-51
2022/08/03 09:05:43;;;;;;;5.10;4.00;;;;;;;14.75;84.01;101405.56;4825632;29;20046;-53
2022/08/03 09:08:09;;;;;;;4.55;3.55;;;;;;;14.71;84.53;101411.63;4814479;29;20110;-54
2022/08/03 09:10:36;;;;;;;5.50;3.28;;;;;;;14.84;83.78;101397.22;4825221;29;20042;-54
2022/08/03 09:13:02;;;;;;;4.72;3.53;;;;;;;14.94;83.70;101409.16;4824610;29;20156;-55
2022/08/03 09:15:32;;;;;;;3.40;3.05;;;;;;;14.84;83.78;101405.31;4828684;29;20037;-54
2022/08/03 09:18:03;;;;;;;3.67;3.03;;;;;;;14.90;83.44;101399.88;4841285;29;20094;-55
2022/08/03 09:20:32;;;;;;;5.18;3.08;;;;;;;14.93;83.45;101396.72;4823327;29;20055;-54
2022/08/03 09:23:01;;;;;;;3.85;3.30;;;;;;;15.01;82.95;101393.75;4833461;29;20071;-54
2022/08/03 09:25:38;;;;;;;3.17;2.55;;;;;;;14.94;83.01;101393.00;4838066;29;20098;-55
2022/08/03 09:28:13;;;;;;;4.82;3.05;;;;;;;14.92;82.97;101378.06;4814946;29;20038;-55
2022/08/03 09:30:42;;;;;;;4.82;2.90;;;;;;;14.84;83.54;101381.06;4811650;29;20054;-55
2022/08/03 09:33:11;;;;;;;3.10;2.80;;;;;;;14.77;83.96;101381.94;4825349;29;20396;-54
2022/08/03 09:35:42;;;;;;;4.72;3.40;;;;;;;14.62;84.24;101386.81;4807134;29;20054;-56
2022/08/03 09:38:11;;;;;;;2.90;2.60;;;;;;;14.60;84.51;101382.69;4807090;29;20491;-54
2022/08/03 09:40:38;;;;;;;2.97;2.67;;;;;;;14.46;85.39;101376.56;4807168;29;20031;-55
2022/08/03 09:43:06;;;;;;;3.92;3.00;;;;;;;14.53;85.00;101378.19;4816444;29;20035;-55
2022/08/03 09:45:35;;;;;;;3.78;2.78;;;;;;;14.60;84.95;101369.22;4816825;29;20107;-55
2022/08/03 09:48:24;;;;;;;4.38;3.30;;;;;;;14.73;84.52;101375.34;4816545;29;20529;-54
2022/08/03 09:50:55;;;;;;;3.60;2.63;;;;;;;14.63;84.29;101363.41;4806492;29;20179;-55
2022/08/03 09:53:22;;;;;;;3.17;2.85;;;;;;;14.64;84.44;101365.03;4819573;29;20130;-54
2022/08/03 09:55:51;;;;;;;3.75;2.55;;;;;;;14.64;84.11;101365.03;4824936;29;20022;-54
2022/08/03 09:58:19;;;;;;;3.38;2.90;;;;;;;14.62;84.39;101362.59;4807391;29;20030;-54
2022/08/03 10:00:59;;;;;;;3.28;2.30;;;;;;;14.64;84.37;101365.03;4824963;29;20027;-55
2022/08/03 10:03:27;;;;;;;2.92;1.95;;;;;;;14.56;84.23;101373.41;4820444;29;20033;-55
2022/08/03 10:05:54;;;;;;;3.38;2.50;;;;;;;14.56;84.61;101360.78;4806438;29;20058;-53
2022/08/03 10:08:21;;;;;;;3.47;2.55;;;;;;;14.51;84.49;101361.41;4816852;29;20075;-54
2022/08/03 10:10:49;;;;;;;2.40;2.20;;;;;;;14.61;83.94;101363.63;4824565;29;20054;-54
2022/08/03 10:13:17;;;;;;;2.40;2.00;;;;;;;14.59;83.84;101365.69;4823493;29;20026;-55
2022/08/03 10:15:45;;;;;;;2.70;2.35;;;;;;;14.57;84.21;101358.91;4825047;29;20034;-55
2022/08/03 10:18:12;;;;;;;2.88;2.38;;;;;;;14.63;83.87;101360.72;4822884;29;20062;-56
2022/08/03 10:21:07;;;;;;;3.28;2.13;;;;;;;14.50;84.64;101364.34;4824286;29;20049;-54
2022/08/03 10:23:34;;;;;;;2.33;1.97;;;;;;;14.59;84.66;101368.41;4812608;29;20043;-55
2022/08/03 10:26:03;;;;;;;4.45;2.63;;;;;;;14.63;84.61;101363.41;4806186;29;20031;-53
2022/08/03 10:28:36;;;;;;;3.90;2.63;;;;;;;14.76;84.05;101368.66;4816243;29;20034;-54
2022/08/03 10:31:06;;;;;;;3.45;2.30;;;;;;;14.62;84.27;101364.47;4806339;29;20450;-55
2022/08/03 10:33:41;;;;;;;2.75;2.45;;;;;;;14.60;84.17;101370.03;4818033;29;20046;-54
2022/08/03 10:36:08;;;;;;;4.05;2.97;;;;;;;14.64;84.56;101370.44;4822617;29;20100;-55
2022/08/03 10:38:44;;;;;;;6.90;2.88;;;;;;;14.70;84.21;101378.47;4804879;29;20421;-53
2022/08/03 10:41:12;;;;;;;3.83;2.20;;;;;;;14.63;84.41;101388.47;4806074;29;20111;-54
2022/08/03 10:44:17;;;;;;;3.25;2.40;;;;;;;14.67;84.77;101378.09;4804954;29;20062;-56
2022/08/03 10:46:46;;;;;;;4.53;3.00;;;;;;;14.67;84.84;101378.91;4798320;29;20058;-54
2022/08/03 10:49:15;;;;;;;2.88;2.33;;;;;;;14.83;83.74;101377.53;4804493;29;20062;-54
2022/08/03 10:51:44;;;;;;;2.35;2.15;;;;;;;14.57;84.96;101381.28;4806286;29;20108;-53
2022/08/03 10:57:49;;;;;;;3.60;2.55;;;;;;;14.69;83.98;101367.91;4814783;29;20041;-55
2022/08/03 11:00:18;;;;;;;2.35;2.00;;;;;;;14.54;84.62;101362.84;4819891;29;20038;-54
2022/08/03 11:03:07;;;;;;;2.35;2.00;;;;;;;14.52;84.66;101341.50;4822071;29;20066;-54
2022/08/03 11:05:42;;;;;;;3.78;2.40;;;;;;;14.46;84.78;101342.38;4823565;29;20034;-54
2022/08/03 11:08:33;;;;;;;3.13;2.67;;;;;;;14.52;85.13;101346.91;4824036;29;20030;-55
2022/08/03 11:11:02;;;;;;;2.08;1.88;;;;;;;14.34;85.75;101344.13;4821517;29;20054;-54
2022/08/03 11:13:32;;;;;;;2.95;2.30;;;;;;;14.35;85.80;101342.25;4823979;29;20091;-55
2022/08/03 11:16:00;;;;;;;3.25;2.25;;;;;;;14.44;85.65;101339.09;4822995;29;20476;-53
2022/08/03 11:18:27;;;;;;;2.38;1.88;;;;;;;14.52;85.41;101335.31;4823093;29;20046;-54
2022/08/03 11:20:55;;;;;;;2.83;2.50;;;;;;;14.48;85.66;101351.06;4824853;29;20029;-55
2022/08/03 11:23:44;;;;;;;3.97;2.10;;;;;;;14.60;85.09;101350.34;4822798;29;20037;-55
2022/08/03 11:26:18;;;;;;;3.08;2.40;;;;;;;14.69;84.61;101330.19;4822601;29;20038;-54
2022/08/03 11:28:46;;;;;;;5.18;2.30;;;;;;;14.55;85.25;101328.66;4822858;29;20033;-53
2022/08/03 11:31:32;;;;;;;2.40;2.00;;;;;;;14.55;85.12;101323.25;4825038;29;20169;-54
2022/08/03 11:34:09;;;;;;;2.42;2.20;;;;;;;14.62;84.86;101322.16;4801742;29;20069;-54
2022/08/03 11:37:11;;;;;;;2.45;1.92;;;;;;;14.60;85.10;101316.16;4809837;29;20087;-55
2022/08/03 11:39:44;;;;;;;3.08;2.13;;;;;;;14.61;85.07;101319.72;4823630;29;20038;-55
2022/08/03 11:42:26;;;;;;;2.10;1.85;;;;;;;14.47;85.94;101314.41;4823453;29;20030;-54
2022/08/03 11:44:57;;;;;;;2.72;2.20;;;;;;;14.53;86.20;101310.00;4823358;29;20026;-55
2022/08/03 11:47:27;;;;;;;2.83;2.53;;;;;;;14.67;85.44;101316.94;4816948;29;20065;-55